Time;durP1;ratioP1;P1;durP2;ratioP2;P2;SDS_P1;SDS_P2;PMS_P1;PMS_P2;Temp;Humidity;BMP_temperature;BMP_pressure;BME280_temperature;BME280_humidity;BME280_pressure;Samples;Min_cycle;Max_cycle;Signal;HPM_P1;HPM_P2
2022/12/25 00:00:27;;;;;;;;;;;5.50;99.90;;;;;;5039783;27;207481;-70
2022/12/25 00:02:53;;;;;;;;;;;5.50;99.90;;;;;;5050702;28;19932;-70
2022/12/25 00:05:19;;;;;;;;;;;5.50;99.90;;;;;;5012300;28;120327;-70
2022/12/25 00:07:45;;;;;;;;;;;5.50;99.90;;;;;;5060605;28;19925;-70
2022/12/25 00:10:11;;;;;;;;;;;5.60;99.90;;;;;;4999253;28;207935;-71
2022/12/25 00:12:37;;;;;;;;;;;5.60;99.90;;;;;;5043579;28;19943;-70
2022/12/25 00:15:03;;;;;;;;;;;5.60;99.90;;;;;;5013647;28;208193;-70
2022/12/25 00:17:29;;;;;;;;;;;5.60;99.90;;;;;;5045913;28;206150;-70
2022/12/25 00:19:55;;;;;;;;;;;5.60;99.90;;;;;;5048816;28;209402;-70
2022/12/25 00:22:21;;;;;;;;;;;5.60;99.90;;;;;;4999899;28;128955;-70
2022/12/25 00:24:48;;;;;;;;;;;5.50;99.90;;;;;;5060012;28;19946;-70
2022/12/25 00:27:14;;;;;;;;;;;5.50;99.90;;;;;;4995732;28;209399;-70
2022/12/25 00:29:40;;;;;;;;;;;5.50;99.90;;;;;;5053750;28;20326;-70
2022/12/25 00:32:06;;;;;;;;;;;5.50;99.90;;;;;;4996147;28;159708;-70
2022/12/25 00:34:32;;;;;;;;;;;5.50;99.90;;;;;;5060470;28;19928;-70
2022/12/25 00:36:58;;;;;;;;;;;5.50;99.90;;;;;;5003106;28;206659;-70
2022/12/25 00:39:24;;;;;;;;;;;5.50;99.90;;;;;;5052140;28;20864;-69
2022/12/25 00:44:35;;;;;;;;;;;5.60;99.90;;;;;;5060348;28;20297;-70
2022/12/25 00:47:01;;;;;;;;;;;5.60;99.90;;;;;;4985003;28;130920;-70
2022/12/25 00:49:27;;;;;;;;;;;5.60;99.90;;;;;;5066975;28;19924;-70
2022/12/25 00:51:53;;;;;;;;;;;5.60;99.90;;;;;;4992729;28;132671;-70
2022/12/25 00:54:19;;;;;;;;;;;5.60;99.90;;;;;;5056544;28;19971;-70
2022/12/25 00:56:45;;;;;;;;;;;5.70;99.90;;;;;;4995956;28;178977;-70
2022/12/25 00:59:12;;;;;;;;;;;5.70;99.90;;;;;;5055891;28;19921;-70
2022/12/25 01:01:38;;;;;;;;;;;5.70;99.90;;;;;;5015047;28;207052;-69
2022/12/25 01:04:04;;;;;;;;;;;5.70;99.90;;;;;;5055937;28;19962;-70
2022/12/25 01:06:31;;;;;;;;;;;5.70;99.90;;;;;;4990523;28;215816;-70
2022/12/25 01:11:43;;;;;;;;;;;5.70;99.90;;;;;;5008174;28;184227;-70
2022/12/25 01:14:09;;;;;;;;;;;5.70;99.90;;;;;;5049434;28;19929;-70
2022/12/25 01:16:35;;;;;;;;;;;5.70;99.90;;;;;;5020768;28;205110;-70
2022/12/25 01:19:01;;;;;;;;;;;5.80;99.90;;;;;;5066436;28;19925;-70
2022/12/25 01:21:27;;;;;;;;;;;5.80;99.90;;;;;;5011845;28;206482;-70
2022/12/25 01:23:53;;;;;;;;;;;5.80;99.90;;;;;;5061807;28;19967;-70
2022/12/25 01:26:20;;;;;;;;;;;5.80;99.90;;;;;;5003390;28;211948;-70
2022/12/25 01:28:47;;;;;;;;;;;5.90;99.90;;;;;;5052297;28;19925;-70
2022/12/25 01:31:14;;;;;;;;;;;5.90;99.90;;;;;;4998760;28;206478;-70
2022/12/25 01:33:41;;;;;;;;;;;5.90;99.90;;;;;;5052736;28;19928;-69
2022/12/25 01:36:14;;;;;;;;;;;6.00;99.90;;;;;;5020673;28;145540;-70
2022/12/25 01:38:40;;;;;;;;;;;6.00;99.90;;;;;;5055146;28;19928;-69
2022/12/25 01:41:06;;;;;;;;;;;6.00;99.90;;;;;;5005366;28;181681;-69
2022/12/25 01:43:33;;;;;;;;;;;6.00;99.90;;;;;;5054043;28;20317;-70
2022/12/25 01:45:59;;;;;;;;;;;6.00;99.90;;;;;;5010705;28;199585;-70
2022/12/25 01:48:29;;;;;;;;;;;6.10;99.90;;;;;;5051039;28;19932;-70
2022/12/25 01:50:57;;;;;;;;;;;6.10;99.90;;;;;;5001198;28;206053;-70
2022/12/25 01:53:24;;;;;;;;;;;6.10;99.90;;;;;;5032841;28;19928;-70
2022/12/25 01:55:54;;;;;;;;;;;6.10;99.90;;;;;;5001158;28;208404;-70
2022/12/25 01:58:20;;;;;;;;;;;6.20;99.90;;;;;;5040473;28;20452;-70
2022/12/25 02:00:46;;;;;;;;;;;6.20;99.90;;;;;;4998988;28;208025;-70
2022/12/25 02:03:12;;;;;;;;;;;6.20;99.90;;;;;;5051981;28;19931;-70
2022/12/25 02:05:39;;;;;;;;;;;6.20;99.90;;;;;;5001557;28;198546;-70
2022/12/25 02:08:09;;;;;;;;;;;6.30;99.90;;;;;;5052488;28;19943;-70
2022/12/25 02:10:35;;;;;;;;;;;6.30;99.90;;;;;;5001037;28;208712;-71
2022/12/25 02:13:02;;;;;;;;;;;6.30;99.90;;;;;;5035541;28;19943;-71
2022/12/25 02:15:48;;;;;;;;;;;6.40;99.90;;;;;;5010973;28;207806;-69
2022/12/25 02:18:22;;;;;;;;;;;6.40;99.90;;;;;;5047849;28;19944;-69
2022/12/25 02:21:00;;;;;;;;;;;6.50;99.90;;;;;;4999438;28;206777;-69
2022/12/25 02:23:46;;;;;;;;;;;6.50;99.90;;;;;;5049083;28;19920;-70
2022/12/25 02:26:26;;;;;;;;;;;6.60;99.90;;;;;;5006710;28;212843;-70
2022/12/25 02:28:58;;;;;;;;;;;6.60;99.90;;;;;;5056841;28;19928;-71
2022/12/25 02:31:28;;;;;;;;;;;6.70;99.90;;;;;;5004809;28;163056;-71
2022/12/25 02:34:15;;;;;;;;;;;6.70;99.90;;;;;;5055991;28;19932;-71
2022/12/25 02:36:55;;;;;;;;;;;6.70;99.90;;;;;;4998555;28;209704;-70
2022/12/25 02:42:20;;;;;;;;;;;6.80;99.90;;;;;;4976607;28;182643;-70
2022/12/25 03:07:18;;;;;;;;;;;7.00;99.90;;;;;;4968094;28;208215;-72
2022/12/25 03:12:41;;;;;;;;;;;7.00;99.90;;;;;;5025269;28;206364;-72
2022/12/25 03:17:54;;;;;;;;;;;7.10;99.90;;;;;;5046862;28;19920;-72
2022/12/25 03:28:54;;;;;;;;;;;7.20;99.90;;;;;;5062150;28;19924;-71
2022/12/25 03:31:24;;;;;;;;;;;7.20;99.90;;;;;;4980047;28;208990;-70
2022/12/25 04:37:37;;;;;;;;;;;7.60;99.90;;;;;;4978563;28;207031;-68
2022/12/25 04:40:03;;;;;;;;;;;7.60;99.90;;;;;;5003255;28;195368;-68
2022/12/25 04:42:29;;;;;;;;;;;7.60;99.90;;;;;;5018318;28;19924;-69
2022/12/25 04:44:56;;;;;;;;;;;7.60;99.90;;;;;;5006875;28;203114;-69
2022/12/25 04:47:22;;;;;;;;;;;7.60;99.90;;;;;;5014273;28;206548;-69
2022/12/25 04:49:48;;;;;;;;;;;7.60;99.90;;;;;;5046715;28;20320;-69
2022/12/25 04:52:14;;;;;;;;;;;7.70;99.90;;;;;;4993759;28;205635;-69
2022/12/25 04:54:40;;;;;;;;;;;7.70;99.90;;;;;;5008685;28;19929;-69
2022/12/25 04:57:06;;;;;;;;;;;7.70;99.90;;;;;;4992196;28;170825;-69
2022/12/25 04:59:32;;;;;;;;;;;7.70;99.90;;;;;;5023668;28;19932;-69
2022/12/25 05:01:58;;;;;;;;;;;7.70;99.90;;;;;;4993358;28;160887;-69
2022/12/25 05:04:24;;;;;;;;;;;7.80;99.90;;;;;;5023107;28;20001;-70
2022/12/25 05:06:51;;;;;;;;;;;7.80;99.90;;;;;;4964069;28;208229;-70
2022/12/25 05:09:17;;;;;;;;;;;7.80;99.90;;;;;;5022788;28;19927;-70
2022/12/25 05:11:43;;;;;;;;;;;7.80;99.90;;;;;;5006667;28;83088;-70
2022/12/25 05:14:09;;;;;;;;;;;7.80;99.90;;;;;;5091219;28;19925;-70
2022/12/25 05:16:35;;;;;;;;;;;7.80;99.90;;;;;;4989497;28;208269;-70
2022/12/25 05:19:01;;;;;;;;;;;7.90;99.90;;;;;;5054093;28;19924;-69
2022/12/25 05:21:27;;;;;;;;;;;7.90;99.90;;;;;;4995297;28;152633;-70
2022/12/25 05:23:53;;;;;;;;;;;7.90;99.90;;;;;;5033282;28;20023;-69
2022/12/25 05:26:20;;;;;;;;;;;7.90;99.90;;;;;;4993471;28;208314;-70
2022/12/25 05:28:46;;;;;;;;;;;7.90;99.90;;;;;;5046229;28;19924;-70
2022/12/25 05:31:12;;;;;;;;;;;7.90;99.90;;;;;;4989611;28;207621;-69
2022/12/25 05:33:38;;;;;;;;;;;7.90;99.90;;;;;;5044444;28;19932;-70
2022/12/25 05:36:05;;;;;;;;;;;7.90;99.90;;;;;;4995042;28;206304;-70
2022/12/25 05:38:31;;;;;;;;;;;7.90;99.90;;;;;;5046258;28;19931;-70
2022/12/25 05:41:00;;;;;;;;;;;7.90;99.90;;;;;;5010903;28;209299;-70
2022/12/25 05:43:27;;;;;;;;;;;7.90;99.90;;;;;;5052494;28;19920;-70
2022/12/25 05:45:53;;;;;;;;;;;7.90;99.90;;;;;;4999098;28;144760;-70
2022/12/25 05:48:19;;;;;;;;;;;7.90;99.90;;;;;;5046327;28;19931;-70
2022/12/25 05:50:45;;;;;;;;;;;7.90;99.90;;;;;;5006937;28;207411;-70
2022/12/25 05:53:12;;;;;;;;;;;8.00;99.90;;;;;;5058202;28;19924;-70
2022/12/25 05:55:40;;;;;;;;;;;8.00;99.90;;;;;;5016736;28;220692;-70
2022/12/25 05:58:06;;;;;;;;;;;8.00;99.90;;;;;;5042997;28;19932;-71
2022/12/25 06:00:32;;;;;;;;;;;8.00;99.90;;;;;;5041806;28;206510;-70
2022/12/25 06:02:58;;;;;;;;;;;8.00;99.90;;;;;;5053525;28;19924;-70
2022/12/25 06:05:24;;;;;;;;;;;8.10;99.90;;;;;;4999569;28;206365;-70
2022/12/25 06:07:50;;;;;;;;;;;8.10;99.90;;;;;;5053881;28;19935;-70
2022/12/25 06:10:16;;;;;;;;;;;8.10;99.90;;;;;;5010905;28;207910;-70
2022/12/25 06:12:42;;;;;;;;;;;8.10;99.90;;;;;;5059915;28;19944;-71
2022/12/25 06:15:08;;;;;;;;;;;8.10;99.90;;;;;;4994584;28;208096;-70
2022/12/25 06:17:34;;;;;;;;;;;8.10;99.90;;;;;;5039079;28;19931;-70
2022/12/25 06:20:00;;;;;;;;;;;8.10;99.90;;;;;;5043067;28;206945;-72
2022/12/25 06:22:30;;;;;;;;;;;8.10;99.90;;;;;;5021568;28;19939;-70
2022/12/25 06:24:56;;;;;;;;;;;8.10;99.90;;;;;;5044177;28;206932;-70
2022/12/25 06:27:22;;;;;;;;;;;8.10;99.90;;;;;;5024356;28;161216;-71
2022/12/25 06:29:48;;;;;;;;;;;8.10;99.90;;;;;;5061854;28;19935;-70
2022/12/25 06:32:14;;;;;;;;;;;8.10;99.90;;;;;;4983655;28;178040;-70
2022/12/25 06:34:40;;;;;;;;;;;8.20;99.90;;;;;;5062886;28;19974;-70
2022/12/25 06:37:05;;;;;;;;;;;8.20;99.90;;;;;;5014596;28;142564;-70
2022/12/25 06:39:32;;;;;;;;;;;8.20;99.90;;;;;;5077243;28;19946;-71
2022/12/25 06:41:58;;;;;;;;;;;8.20;99.90;;;;;;5016389;28;150082;-69
2022/12/25 06:44:24;;;;;;;;;;;8.20;99.90;;;;;;5067484;28;20300;-70
2022/12/25 06:46:51;;;;;;;;;;;8.20;99.90;;;;;;4984539;28;191634;-70
2022/12/25 06:49:17;;;;;;;;;;;8.20;99.90;;;;;;5055580;28;19925;-70
2022/12/25 06:51:43;;;;;;;;;;;8.20;99.90;;;;;;5002281;28;196736;-69
2022/12/25 06:54:09;;;;;;;;;;;8.20;99.90;;;;;;5056950;28;19959;-70
2022/12/25 06:56:35;;;;;;;;;;;8.20;99.90;;;;;;5001554;28;204793;-70
2022/12/25 06:59:05;;;;;;;;;;;8.20;99.90;;;;;;5044897;28;19936;-70
2022/12/25 07:01:36;;;;;;;;;;;8.20;99.90;;;;;;5023076;28;141221;-69
2022/12/25 07:04:04;;;;;;;;;;;8.20;99.90;;;;;;5058009;28;19928;-69
2022/12/25 07:06:30;;;;;;;;;;;8.20;99.90;;;;;;4994762;28;179004;-69
2022/12/25 07:08:56;;;;;;;;;;;8.20;99.90;;;;;;5059911;28;19921;-70
2022/12/25 07:11:22;;;;;;;;;;;8.30;99.90;;;;;;5018729;28;209559;-69
2022/12/25 07:13:49;;;;;;;;;;;8.30;99.90;;;;;;5061692;28;20293;-69
2022/12/25 07:16:15;;;;;;;;;;;8.30;99.90;;;;;;5003289;28;206514;-70
2022/12/25 07:18:41;;;;;;;;;;;8.30;99.90;;;;;;5062749;28;19928;-70
2022/12/25 07:21:11;;;;;;;;;;;8.40;99.90;;;;;;5018578;28;207752;-71
2022/12/25 07:23:37;;;;;;;;;;;8.40;99.90;;;;;;5067621;28;19928;-70
2022/12/25 07:26:04;;;;;;;;;;;8.30;99.90;;;;;;5034525;28;181796;-69
2022/12/25 07:28:30;;;;;;;;;;;8.30;99.90;;;;;;5059507;28;19924;-70
2022/12/25 07:31:00;;;;;;;;;;;8.30;99.90;;;;;;5010233;28;149402;-70
2022/12/25 07:33:26;;;;;;;;;;;8.30;99.90;;;;;;5060717;28;19928;-70
2022/12/25 07:35:52;;;;;;;;;;;8.40;99.90;;;;;;5006385;28;206771;-70
2022/12/25 07:38:18;;;;;;;;;;;8.30;99.90;;;;;;5051099;28;19928;-70
2022/12/25 07:40:44;;;;;;;;;;;8.30;99.90;;;;;;5039000;28;165488;-70
2022/12/25 07:43:11;;;;;;;;;;;8.40;99.90;;;;;;5056433;28;20385;-69
2022/12/25 07:45:37;;;;;;;;;;;8.40;99.90;;;;;;5018375;28;207153;-69
2022/12/25 07:48:03;;;;;;;;;;;8.40;99.90;;;;;;5052751;28;19931;-69
2022/12/25 07:50:30;;;;;;;;;;;8.40;99.90;;;;;;5004944;28;212017;-69
2022/12/25 07:52:56;;;;;;;;;;;8.40;99.90;;;;;;5063101;28;19936;-69
2022/12/25 07:55:22;;;;;;;;;;;8.40;99.90;;;;;;5012333;28;189270;-69
2022/12/25 07:57:48;;;;;;;;;;;8.40;99.90;;;;;;5050926;28;20352;-70
2022/12/25 08:00:15;;;;;;;;;;;8.40;99.90;;;;;;5008267;28;210294;-69
2022/12/25 08:02:41;;;;;;;;;;;8.40;99.90;;;;;;5030079;28;19948;-70
2022/12/25 08:05:07;;;;;;;;;;;8.40;99.90;;;;;;5017404;28;207853;-70
2022/12/25 08:07:34;;;;;;;;;;;8.40;99.90;;;;;;5036489;28;19928;-69
2022/12/25 08:10:01;;;;;;;;;;;8.40;99.90;;;;;;5047211;28;207881;-69
2022/12/25 08:12:27;;;;;;;;;;;8.40;99.90;;;;;;5043523;28;19924;-70
2022/12/25 08:14:52;;;;;;;;;;;8.40;99.90;;;;;;5062990;28;19924;-70
2022/12/25 08:17:18;;;;;;;;;;;8.40;99.90;;;;;;5014130;28;256336;-70
2022/12/25 08:19:44;;;;;;;;;;;8.40;99.90;;;;;;5064263;28;19927;-69
2022/12/25 08:22:10;;;;;;;;;;;8.40;99.90;;;;;;5017772;28;129018;-70
2022/12/25 08:24:36;;;;;;;;;;;8.40;99.90;;;;;;5067589;28;19920;-70
2022/12/25 08:27:03;;;;;;;;;;;8.40;99.90;;;;;;5019800;28;200852;-70
2022/12/25 08:29:29;;;;;;;;;;;8.40;99.90;;;;;;5072353;28;19921;-68
2022/12/25 08:31:54;;;;;;;;;;;8.50;99.90;;;;;;5015297;28;200748;-71
2022/12/25 08:34:20;;;;;;;;;;;8.50;99.90;;;;;;5093212;28;19925;-71
2022/12/25 08:36:46;;;;;;;;;;;8.40;99.90;;;;;;5006943;28;210657;-70
2022/12/25 08:39:12;;;;;;;;;;;8.50;99.90;;;;;;5064682;28;19995;-70
2022/12/25 08:41:39;;;;;;;;;;;8.50;99.90;;;;;;5005839;28;153520;-71
2022/12/25 08:44:05;;;;;;;;;;;8.40;99.90;;;;;;5057918;28;19932;-70
2022/12/25 08:46:31;;;;;;;;;;;8.50;99.90;;;;;;5015587;28;204853;-70
2022/12/25 08:48:57;;;;;;;;;;;8.40;99.90;;;;;;5066385;28;19921;-68
2022/12/25 08:51:24;;;;;;;;;;;8.40;99.90;;;;;;5029161;28;212566;-69
2022/12/25 08:53:50;;;;;;;;;;;8.50;99.90;;;;;;5056827;28;19921;-68
2022/12/25 08:56:17;;;;;;;;;;;8.50;99.90;;;;;;5001908;28;215629;-69
2022/12/25 08:58:44;;;;;;;;;;;8.50;99.90;;;;;;5062661;28;20003;-69
2022/12/25 09:01:10;;;;;;;;;;;8.50;99.90;;;;;;5028032;28;207243;-69
2022/12/25 09:03:36;;;;;;;;;;;8.50;99.90;;;;;;5070347;28;19940;-69
2022/12/25 09:06:07;;;;;;;;;;;8.50;99.90;;;;;;4992599;28;208259;-68
2022/12/25 09:08:33;;;;;;;;;;;8.50;99.90;;;;;;5056266;28;19931;-69
2022/12/25 09:11:00;;;;;;;;;;;8.50;99.90;;;;;;5006470;28;186730;-69
2022/12/25 09:13:26;;;;;;;;;;;8.50;99.90;;;;;;5047775;28;19928;-69
2022/12/25 09:15:55;;;;;;;;;;;8.50;99.90;;;;;;5013995;28;208612;-70
2022/12/25 09:18:21;;;;;;;;;;;8.50;99.90;;;;;;5063027;28;20401;-70
2022/12/25 09:20:55;;;;;;;;;;;8.40;99.90;;;;;;5013730;28;222924;-69
2022/12/25 09:23:21;;;;;;;;;;;8.50;99.90;;;;;;5067254;28;19925;-69
2022/12/25 09:25:47;;;;;;;;;;;8.40;99.90;;;;;;5010212;28;169613;-69
2022/12/25 09:28:13;;;;;;;;;;;8.40;99.90;;;;;;5044989;28;19974;-70
2022/12/25 09:30:39;;;;;;;;;;;8.50;99.90;;;;;;5020116;28;206462;-70
2022/12/25 09:33:05;;;;;;;;;;;8.50;99.90;;;;;;5020770;28;19920;-70
2022/12/25 09:35:31;;;;;;;;;;;8.50;99.90;;;;;;5028228;28;168922;-69
2022/12/25 09:37:57;;;;;;;;;;;8.50;99.90;;;;;;5046600;28;19924;-70
2022/12/25 09:40:24;;;;;;;;;;;8.50;99.90;;;;;;5007735;28;208245;-69
2022/12/25 09:42:52;;;;;;;;;;;8.40;99.90;;;;;;5061363;28;19929;-68
2022/12/25 09:45:28;;;;;;;;;;;8.50;99.90;;;;;;5014911;28;107125;-69
2022/12/25 09:47:55;;;;;;;;;;;8.50;99.90;;;;;;5048688;28;19935;-69
2022/12/25 09:50:26;;;;;;;;;;;8.50;99.90;;;;;;5009379;28;206243;-68
2022/12/25 09:53:03;;;;;;;;;;;8.50;99.90;;;;;;5042069;28;20368;-68
2022/12/25 09:55:31;;;;;;;;;;;8.50;99.90;;;;;;5007660;28;202948;-69
2022/12/25 09:57:58;;;;;;;;;;;8.50;99.90;;;;;;5052165;28;19928;-70
2022/12/25 10:00:27;;;;;;;;;;;8.50;99.90;;;;;;5000281;28;158065;-68
2022/12/25 10:02:53;;;;;;;;;;;8.50;99.90;;;;;;5063885;28;19936;-69
2022/12/25 10:05:24;;;;;;;;;;;8.50;99.90;;;;;;4999866;28;216386;-69
2022/12/25 10:07:50;;;;;;;;;;;8.50;99.90;;;;;;5047384;28;19932;-69
2022/12/25 10:10:25;;;;;;;;;;;8.60;99.90;;;;;;5001288;28;211873;-66
2022/12/25 10:12:57;;;;;;;;;;;8.60;99.90;;;;;;5057154;28;20691;-70
2022/12/25 10:15:23;;;;;;;;;;;8.60;99.90;;;;;;5009009;28;143459;-69
2022/12/25 10:18:14;;;;;;;;;;;8.60;99.90;;;;;;5041547;28;21638;-69
2022/12/25 10:20:45;;;;;;;;;;;8.60;99.90;;;;;;4999707;28;145982;-68
2022/12/25 10:23:14;;;;;;;;;;;8.60;99.90;;;;;;5048573;28;19928;-69
2022/12/25 10:25:40;;;;;;;;;;;8.60;99.90;;;;;;4993293;28;212873;-68
2022/12/25 10:28:17;;;;;;;;;;;8.60;99.90;;;;;;5028318;28;19920;-68
2022/12/25 10:30:43;;;;;;;;;;;8.70;99.90;;;;;;4999026;28;207095;-68
2022/12/25 10:33:11;;;;;;;;;;;8.70;99.90;;;;;;5051217;28;19924;-69
2022/12/25 10:35:38;;;;;;;;;;;8.60;99.90;;;;;;4997061;28;207738;-69
2022/12/25 10:38:12;;;;;;;;;;;8.60;99.90;;;;;;5075192;28;19920;-69
2022/12/25 10:40:56;;;;;;;;;;;8.60;99.90;;;;;;4995837;28;196362;-69
2022/12/25 10:43:42;;;;;;;;;;;8.60;99.90;;;;;;5060505;28;19921;-70
2022/12/25 10:46:10;;;;;;;;;;;8.60;99.90;;;;;;4990534;28;137324;-70
2022/12/25 10:48:39;;;;;;;;;;;8.60;99.90;;;;;;5032513;28;20570;-70
2022/12/25 10:51:06;;;;;;;;;;;8.70;99.90;;;;;;5011421;28;207900;-69
2022/12/25 10:53:37;;;;;;;;;;;8.70;99.90;;;;;;5032172;28;19924;-69
2022/12/25 10:56:04;;;;;;;;;;;8.70;99.90;;;;;;4995295;28;169280;-69
2022/12/25 10:58:30;;;;;;;;;;;8.70;99.90;;;;;;5048714;28;19925;-69
2022/12/25 11:01:06;;;;;;;;;;;8.70;99.90;;;;;;5000712;28;222616;-69
2022/12/25 11:03:36;;;;;;;;;;;8.70;99.90;;;;;;5058520;28;19931;-69
2022/12/25 11:06:03;;;;;;;;;;;8.80;99.90;;;;;;5015882;28;176070;-69
2022/12/25 11:08:30;;;;;;;;;;;8.80;99.90;;;;;;5052401;28;20427;-69
2022/12/25 11:10:58;;;;;;;;;;;8.90;99.90;;;;;;5002043;28;184945;-69
2022/12/25 11:13:25;;;;;;;;;;;8.80;99.90;;;;;;5054043;28;19921;-69
2022/12/25 11:16:10;;;;;;;;;;;8.90;99.90;;;;;;5017247;28;121981;-69
2022/12/25 11:18:50;;;;;;;;;;;8.90;99.90;;;;;;5056496;28;20412;-70
2022/12/25 11:21:26;;;;;;;;;;;8.90;99.90;;;;;;5015055;28;207371;-69
2022/12/25 11:24:16;;;;;;;;;;;8.90;99.90;;;;;;5063510;28;19924;-68
2022/12/25 11:26:49;;;;;;;;;;;9.00;99.90;;;;;;4937325;28;90572;-67
2022/12/25 11:29:22;;;;;;;;;;;9.10;99.90;;;;;;5013061;28;20151;-68
2022/12/25 11:31:49;;;;;;;;;;;9.10;99.90;;;;;;4966443;28;189649;-68
2022/12/25 11:34:29;;;;;;;;;;;9.10;99.90;;;;;;5005761;28;19951;-69
2022/12/25 11:36:56;;;;;;;;;;;9.10;99.90;;;;;;4934442;28;210978;-67
2022/12/25 11:39:25;;;;;;;;;;;9.10;99.90;;;;;;5017215;28;19932;-69
2022/12/25 11:41:54;;;;;;;;;;;9.10;99.90;;;;;;4945141;28;163866;-69
2022/12/25 11:44:33;;;;;;;;;;;9.20;99.90;;;;;;5001358;28;19956;-69
2022/12/25 11:47:07;;;;;;;;;;;9.20;99.90;;;;;;4936401;28;203998;-68
2022/12/25 11:49:39;;;;;;;;;;;9.20;99.90;;;;;;5003182;28;19925;-69
2022/12/25 11:52:07;;;;;;;;;;;9.20;99.90;;;;;;4921882;28;207582;-68
2022/12/25 11:54:37;;;;;;;;;;;9.20;99.90;;;;;;5011006;28;19921;-69
2022/12/25 11:57:03;;;;;;;;;;;9.20;99.90;;;;;;4952901;28;205665;-69
2022/12/25 11:59:33;;;;;;;;;;;9.20;99.90;;;;;;5005575;28;19932;-69
2022/12/25 12:02:22;;;;;;;;;;;9.20;99.90;;;;;;4958734;28;100937;-69
2022/12/25 12:04:49;;;;;;;;;;;9.30;99.90;;;;;;4987697;28;19937;-69
2022/12/25 12:07:18;;;;;;;;;;;9.20;99.90;;;;;;4932495;28;164665;-69
2022/12/25 12:09:49;;;;;;;;;;;9.20;99.90;;;;;;5022331;28;19921;-68
2022/12/25 12:12:21;;;;;;;;;;;9.30;99.90;;;;;;4934325;28;207689;-69
2022/12/25 12:14:52;;;;;;;;;;;9.30;99.90;;;;;;5001286;28;19925;-69
2022/12/25 12:17:18;;;;;;;;;;;9.30;99.90;;;;;;4928549;28;206539;-70
2022/12/25 12:19:44;;;;;;;;;;;9.30;99.90;;;;;;5018703;28;19932;-68
2022/12/25 12:22:24;;;;;;;;;;;9.30;99.90;;;;;;4936843;28;203778;-69
2022/12/25 12:25:03;;;;;;;;;;;9.30;99.90;;;;;;4985466;28;19921;-69
2022/12/25 12:27:29;;;;;;;;;;;9.30;99.90;;;;;;4933119;28;208723;-68
2022/12/25 12:29:57;;;;;;;;;;;9.30;99.90;;;;;;4988908;28;156124;-68
2022/12/25 12:32:31;;;;;;;;;;;9.30;99.90;;;;;;4959250;28;104475;-68
2022/12/25 12:34:58;;;;;;;;;;;9.30;99.90;;;;;;5000247;28;202186;-69
2022/12/25 12:37:29;;;;;;;;;;;9.30;99.90;;;;;;4954979;28;52916;-69
2022/12/25 12:39:55;;;;;;;;;;;9.30;99.90;;;;;;4995399;28;159267;-69
2022/12/25 12:42:24;;;;;;;;;;;9.30;99.90;;;;;;4996073;28;90999;-69
2022/12/25 12:44:51;;;;;;;;;;;9.30;99.90;;;;;;5070927;28;19924;-69
2022/12/25 12:47:32;;;;;;;;;;;9.30;99.90;;;;;;4983906;28;196220;-68
2022/12/25 12:49:59;;;;;;;;;;;9.30;99.90;;;;;;5053392;28;217552;-68
2022/12/25 12:52:31;;;;;;;;;;;9.40;99.90;;;;;;5017631;28;75939;-69
2022/12/25 12:54:59;;;;;;;;;;;9.30;99.90;;;;;;5061667;28;208253;-69
2022/12/25 12:57:28;;;;;;;;;;;9.30;99.90;;;;;;5012875;28;20012;-68
2022/12/25 12:59:55;;;;;;;;;;;9.40;99.90;;;;;;5046574;28;206939;-68
2022/12/25 13:02:40;;;;;;;;;;;9.40;99.90;;;;;;5011470;28;195609;-69
2022/12/25 13:05:26;;;;;;;;;;;9.30;99.90;;;;;;5008886;28;207491;-69
2022/12/25 13:08:01;;;;;;;;;;;9.40;99.90;;;;;;5032024;28;19928;-69
2022/12/25 13:10:33;;;;;;;;;;;9.30;99.90;;;;;;4971468;28;139897;-69
2022/12/25 13:13:01;;;;;;;;;;;9.30;99.90;;;;;;5011017;28;19936;-69
2022/12/25 13:15:30;;;;;;;;;;;9.40;99.90;;;;;;4969667;28;188770;-70
2022/12/25 13:17:59;;;;;;;;;;;9.30;99.90;;;;;;5039459;28;19933;-69
2022/12/25 13:20:53;;;;;;;;;;;9.30;99.90;;;;;;4996307;28;101718;-69
2022/12/25 13:23:32;;;;;;;;;;;9.30;99.90;;;;;;5039719;28;19920;-69
2022/12/25 13:26:00;;;;;;;;;;;9.30;99.90;;;;;;4968190;28;209450;-69
2022/12/25 13:28:35;;;;;;;;;;;9.30;99.90;;;;;;5026966;28;19921;-69
2022/12/25 13:31:05;;;;;;;;;;;9.30;99.90;;;;;;4978181;28;194614;-70
2022/12/25 13:33:31;;;;;;;;;;;9.30;99.90;;;;;;5024750;28;19921;-69
2022/12/25 13:35:57;;;;;;;;;;;9.30;99.90;;;;;;4986754;28;163317;-70
2022/12/25 13:38:26;;;;;;;;;;;9.30;99.90;;;;;;5031438;28;19931;-69
2022/12/25 13:43:39;;;;;;;;;;;9.30;99.90;;;;;;5040113;28;19924;-69
2022/12/25 13:46:05;;;;;;;;;;;9.30;99.90;;;;;;5008953;28;214466;-67
2022/12/25 13:48:31;;;;;;;;;;;9.30;99.90;;;;;;5050437;28;19924;-69
2022/12/25 13:50:58;;;;;;;;;;;9.30;99.90;;;;;;5008514;28;197391;-69
2022/12/25 13:53:25;;;;;;;;;;;9.20;99.90;;;;;;5055238;28;19924;-69
2022/12/25 13:55:51;;;;;;;;;;;9.20;99.90;;;;;;5019854;28;28421;-68
2022/12/25 13:58:22;;;;;;;;;;;9.20;99.90;;;;;;5048441;28;19919;-68
2022/12/25 14:00:51;;;;;;;;;;;9.20;99.90;;;;;;5011323;28;207245;-68
2022/12/25 14:03:19;;;;;;;;;;;9.20;99.90;;;;;;5040202;28;20302;-68
2022/12/25 14:05:53;;;;;;;;;;;9.20;99.90;;;;;;5015866;28;205457;-69
2022/12/25 14:08:21;;;;;;;;;;;9.20;99.90;;;;;;5041629;28;19928;-68
2022/12/25 14:10:48;;;;;;;;;;;9.20;99.90;;;;;;5028159;28;137366;-68
2022/12/25 14:13:15;;;;;;;;;;;9.20;99.90;;;;;;5061413;28;19963;-68
2022/12/25 14:15:42;;;;;;;;;;;9.20;99.90;;;;;;5012539;28;32400;-69
2022/12/25 14:18:15;;;;;;;;;;;9.20;99.90;;;;;;5045877;28;19924;-68
2022/12/25 14:20:53;;;;;;;;;;;9.20;99.90;;;;;;5016608;28;207361;-68
2022/12/25 14:23:19;;;;;;;;;;;9.20;99.90;;;;;;5057574;28;20505;-68
2022/12/25 14:25:46;;;;;;;;;;;9.20;99.90;;;;;;5015672;28;197002;-69
2022/12/25 14:28:23;;;;;;;;;;;9.20;99.90;;;;;;5040731;28;19936;-69
2022/12/25 14:30:50;;;;;;;;;;;9.10;99.90;;;;;;5009685;28;188898;-69
2022/12/25 14:33:21;;;;;;;;;;;9.10;99.90;;;;;;5072468;28;19924;-69
2022/12/25 14:35:47;;;;;;;;;;;9.10;99.90;;;;;;5036658;28;152264;-69
2022/12/25 14:38:19;;;;;;;;;;;9.10;99.90;;;;;;5045873;28;19929;-69
2022/12/25 14:40:45;;;;;;;;;;;9.10;99.90;;;;;;5006589;28;193264;-69
2022/12/25 14:43:25;;;;;;;;;;;9.10;99.90;;;;;;5039338;28;19922;-69
2022/12/25 14:45:58;;;;;;;;;;;9.10;99.90;;;;;;5013753;28;206740;-70
2022/12/25 14:48:26;;;;;;;;;;;9.10;99.90;;;;;;5080151;28;19942;-69
2022/12/25 14:50:55;;;;;;;;;;;9.10;99.90;;;;;;5013417;28;226644;-69
2022/12/25 14:53:23;;;;;;;;;;;9.10;99.90;;;;;;5067522;28;19920;-69
2022/12/25 14:55:53;;;;;;;;;;;9.10;99.90;;;;;;5003511;28;208035;-69
2022/12/25 14:58:24;;;;;;;;;;;9.10;99.90;;;;;;5061396;28;19924;-69
2022/12/25 15:00:55;;;;;;;;;;;9.00;99.90;;;;;;5007678;28;153371;-69
2022/12/25 15:03:34;;;;;;;;;;;9.00;99.90;;;;;;5049296;28;19943;-69
2022/12/25 15:06:18;;;;;;;;;;;9.00;99.90;;;;;;5001482;28;206354;-69
2022/12/25 15:08:54;;;;;;;;;;;9.00;99.90;;;;;;5052148;28;19925;-69
2022/12/25 15:11:20;;;;;;;;;;;9.00;99.90;;;;;;5003601;28;208068;-69
2022/12/25 15:13:45;;;;;;;;;;;9.00;99.90;;;;;;5047461;28;19974;-70
2022/12/25 15:16:13;;;;;;;;;;;9.00;99.90;;;;;;4995103;28;209333;-69
2022/12/25 15:18:42;;;;;;;;;;;9.00;99.90;;;;;;5058267;28;19927;-70
2022/12/25 15:21:28;;;;;;;;;;;9.00;99.90;;;;;;5013572;28;207308;-70
2022/12/25 15:23:54;;;;;;;;;;;9.00;99.90;;;;;;5074849;28;20254;-69
2022/12/25 15:26:21;;;;;;;;;;;9.00;99.90;;;;;;4980691;28;195128;-70
2022/12/25 15:28:47;;;;;;;;;;;9.00;99.90;;;;;;5048608;28;19921;-69
2022/12/25 15:31:16;;;;;;;;;;;9.00;99.90;;;;;;5000074;28;207260;-70
2022/12/25 15:33:42;;;;;;;;;;;9.00;99.90;;;;;;5047948;28;19924;-70
2022/12/25 15:36:08;;;;;;;;;;;8.90;99.90;;;;;;5000784;28;206504;-69
2022/12/25 15:38:37;;;;;;;;;;;9.00;99.90;;;;;;5046699;28;19920;-70
2022/12/25 15:41:03;;;;;;;;;;;9.00;99.90;;;;;;5006705;28;214328;-70
2022/12/25 15:43:29;;;;;;;;;;;9.00;99.90;;;;;;5055830;28;20394;-70
2022/12/25 15:45:55;;;;;;;;;;;8.90;99.90;;;;;;5014303;28;207516;-70
2022/12/25 15:48:20;;;;;;;;;;;9.00;99.90;;;;;;5061159;28;19935;-70
2022/12/25 15:50:46;;;;;;;;;;;8.90;99.90;;;;;;5010657;28;137013;-70
2022/12/25 15:53:13;;;;;;;;;;;8.90;99.90;;;;;;5054587;28;20415;-69
2022/12/25 15:55:39;;;;;;;;;;;8.90;99.90;;;;;;5018214;28;207672;-69
2022/12/25 15:58:04;;;;;;;;;;;8.90;99.90;;;;;;5062974;28;19928;-70
2022/12/25 16:00:30;;;;;;;;;;;8.90;99.90;;;;;;5012070;28;208212;-72
2022/12/25 16:02:56;;;;;;;;;;;8.90;99.90;;;;;;5036756;28;19929;-70
2022/12/25 16:05:22;;;;;;;;;;;8.90;99.90;;;;;;5003177;28;208074;-69
2022/12/25 16:07:48;;;;;;;;;;;8.90;99.90;;;;;;5047469;28;19979;-70
2022/12/25 16:10:16;;;;;;;;;;;8.90;99.90;;;;;;5003140;28;207730;-69
2022/12/25 16:12:43;;;;;;;;;;;8.90;99.90;;;;;;5058677;28;19929;-69
2022/12/25 16:15:12;;;;;;;;;;;8.90;99.90;;;;;;5010382;28;208286;-69
2022/12/25 16:17:38;;;;;;;;;;;8.90;99.90;;;;;;5064222;28;19939;-69
2022/12/25 16:20:05;;;;;;;;;;;8.90;99.90;;;;;;5019642;28;214433;-69
2022/12/25 16:22:38;;;;;;;;;;;8.90;99.90;;;;;;5027857;28;19932;-69